createdAt,value
2023-01-20T00:00:33.869Z,6.85
2023-01-20T00:03:01.447Z,7.18
2023-01-20T00:05:29.008Z,6.88
2023-01-20T00:07:56.560Z,6.57
2023-01-20T00:10:24.084Z,6.35
2023-01-20T00:12:51.562Z,7.45
2023-01-20T00:15:19.084Z,7.57
2023-01-20T00:17:47.970Z,7.10
2023-01-20T00:20:15.738Z,6.93
2023-01-20T00:22:43.258Z,6.85
2023-01-20T00:25:11.292Z,6.70
2023-01-20T00:27:38.868Z,7.18
2023-01-20T00:30:07.750Z,7.15
2023-01-20T00:32:39.064Z,6.82
2023-01-20T00:35:10.509Z,8.25
2023-01-20T00:37:38.157Z,7.43
2023-01-20T00:40:07.193Z,8.02
2023-01-20T00:42:34.779Z,7.65
2023-01-20T00:45:02.503Z,7.32
2023-01-20T00:47:30.054Z,7.43
2023-01-20T00:49:57.576Z,7.05
2023-01-20T00:52:26.480Z,7.45
2023-01-20T00:54:54.074Z,8.48
2023-01-20T00:57:21.629Z,7.78
2023-01-20T00:59:49.236Z,6.88
2023-01-20T01:02:16.782Z,7.00
2023-01-20T01:04:44.501Z,7.78
2023-01-20T01:07:12.101Z,7.80
2023-01-20T01:09:41.030Z,7.57
2023-01-20T01:12:08.743Z,7.07
2023-01-20T01:14:36.309Z,7.60
2023-01-20T01:17:03.817Z,6.25
2023-01-20T01:19:31.352Z,6.88
2023-01-20T01:21:58.894Z,6.75
2023-01-20T01:24:26.428Z,6.32
2023-01-20T01:26:55.535Z,6.07
2023-01-20T01:29:23.210Z,6.05
2023-01-20T01:31:50.818Z,6.65
2023-01-20T01:34:18.380Z,6.72
2023-01-20T01:36:45.872Z,6.90
2023-01-20T01:39:13.374Z,6.00
2023-01-20T01:41:40.962Z,7.78
2023-01-20T01:44:11.828Z,8.50
2023-01-20T01:46:40.761Z,6.28
2023-01-20T01:49:12.711Z,5.50
2023-01-20T01:51:43.759Z,6.10
2023-01-20T01:54:14.244Z,5.90
2023-01-20T01:56:44.201Z,6.15
2023-01-20T01:59:15.102Z,6.20
2023-01-20T02:01:48.327Z,4.95
2023-01-20T02:04:17.990Z,5.15
2023-01-20T02:06:47.569Z,5.60
2023-01-20T02:09:15.404Z,5.68
2023-01-20T02:11:48.411Z,6.07
2023-01-20T02:14:18.891Z,5.80
2023-01-20T02:16:59.007Z,5.43
2023-01-20T02:20:05.859Z,5.45
2023-01-20T02:22:48.310Z,5.05
2023-01-20T02:25:47.597Z,4.70
2023-01-20T02:28:46.237Z,5.50
2023-01-20T02:31:56.791Z,4.85
2023-01-20T02:34:29.116Z,4.85
2023-01-20T02:37:00.154Z,5.43
2023-01-20T02:39:31.996Z,5.07
2023-01-20T02:42:05.145Z,4.55
2023-01-20T02:47:12.989Z,4.20
2023-01-20T02:49:45.297Z,4.35
2023-01-20T02:52:16.253Z,4.75
2023-01-20T02:54:49.868Z,4.60
2023-01-20T02:57:22.485Z,5.05
2023-01-20T02:59:54.295Z,3.45
2023-01-20T03:02:26.640Z,5.40
2023-01-20T03:05:00.196Z,4.60
2023-01-20T03:07:30.391Z,4.60
2023-01-20T03:10:02.016Z,4.68
2023-01-20T03:12:34.496Z,4.55
2023-01-20T03:15:02.109Z,4.97
2023-01-20T03:17:31.231Z,4.35
2023-01-20T03:19:58.888Z,4.32
2023-01-20T03:22:26.536Z,4.70
2023-01-20T03:24:55.806Z,4.63
2023-01-20T03:27:23.416Z,4.28
2023-01-20T03:29:51.071Z,4.63
2023-01-20T03:32:22.670Z,5.10
2023-01-20T03:34:51.671Z,4.30
2023-01-20T03:37:19.236Z,5.25
2023-01-20T03:39:47.087Z,4.57
2023-01-20T03:42:19.611Z,3.58
2023-01-20T03:45:01.342Z,3.50
2023-01-20T03:47:42.364Z,3.55
2023-01-20T03:50:23.766Z,3.88
2023-01-20T03:52:56.567Z,4.25
2023-01-20T03:55:27.582Z,3.38
2023-01-20T03:58:03.335Z,3.60
2023-01-20T04:00:33.534Z,3.25
2023-01-20T04:03:06.825Z,4.10
2023-01-20T04:08:08.022Z,3.65
2023-01-20T04:10:37.881Z,3.55
2023-01-20T04:13:05.753Z,3.83
2023-01-20T04:15:35.837Z,3.53
2023-01-20T04:18:15.852Z,3.58
2023-01-20T04:20:47.169Z,3.80
2023-01-20T04:23:21.753Z,3.60
2023-01-20T04:25:49.408Z,3.50
2023-01-20T04:28:17.016Z,3.45
2023-01-20T04:30:44.649Z,3.38
2023-01-20T04:33:12.278Z,3.22
2023-01-20T04:35:39.913Z,3.42
2023-01-20T04:38:08.875Z,3.78
2023-01-20T04:40:36.535Z,3.13
2023-01-20T04:43:04.395Z,3.53
2023-01-20T04:45:32.019Z,3.17
2023-01-20T04:47:59.600Z,3.33
2023-01-20T04:50:27.243Z,3.38
2023-01-20T04:52:56.177Z,3.72
2023-01-20T04:55:26.672Z,2.83
2023-01-20T04:57:54.219Z,3.70
2023-01-20T05:00:22.257Z,4.30
2023-01-20T05:02:49.893Z,3.50
2023-01-20T05:05:17.944Z,3.40
2023-01-20T05:07:45.617Z,4.22
2023-01-20T05:10:13.427Z,3.47
2023-01-20T05:12:42.611Z,3.17
2023-01-20T05:15:10.944Z,3.53
2023-01-20T05:17:38.563Z,2.83
2023-01-20T05:20:06.749Z,3.38
2023-01-20T05:22:34.565Z,3.17
2023-01-20T05:25:02.096Z,3.53
2023-01-20T05:27:29.699Z,3.97
2023-01-20T05:29:58.641Z,3.47
2023-01-20T05:32:26.215Z,3.38
2023-01-20T05:34:53.848Z,3.47
2023-01-20T05:37:21.420Z,3.53
2023-01-20T05:39:49.030Z,3.90
2023-01-20T05:42:16.698Z,3.78
2023-01-20T05:44:44.342Z,3.63
2023-01-20T05:47:13.417Z,3.33
2023-01-20T05:49:41.615Z,3.75
2023-01-20T05:52:09.138Z,3.20
2023-01-20T05:54:36.726Z,3.28
2023-01-20T05:57:05.567Z,3.67
2023-01-20T05:59:33.229Z,3.70
2023-01-20T06:02:00.815Z,2.83
2023-01-20T06:04:29.688Z,3.10
2023-01-20T06:06:57.238Z,13.05
2023-01-20T06:09:25.070Z,12.60
2023-01-20T06:11:52.772Z,6.53
2023-01-20T06:14:20.513Z,5.05
2023-01-20T06:16:48.092Z,6.68
2023-01-20T06:19:15.877Z,4.50
2023-01-20T06:21:46.847Z,3.47
2023-01-20T06:24:14.760Z,3.28
2023-01-20T06:26:42.366Z,3.35
2023-01-20T06:29:09.874Z,3.40
2023-01-20T06:31:37.535Z,3.65
2023-01-20T06:34:05.079Z,3.05
2023-01-20T06:36:32.612Z,2.72
2023-01-20T06:39:01.475Z,3.20
2023-01-20T06:41:29.049Z,3.38
2023-01-20T06:43:56.641Z,3.42
2023-01-20T06:46:24.244Z,3.45
2023-01-20T06:48:51.812Z,3.67
2023-01-20T06:51:21.296Z,3.78
2023-01-20T06:53:49.085Z,4.32
2023-01-20T06:56:18.310Z,3.60
2023-01-20T06:58:46.154Z,3.55
2023-01-20T07:01:15.893Z,3.50
2023-01-20T07:03:44.245Z,4.47
2023-01-20T07:06:17.276Z,5.90
2023-01-20T07:08:45.994Z,5.60
2023-01-20T07:11:13.920Z,4.55
2023-01-20T07:13:43.305Z,4.20
2023-01-20T07:16:15.188Z,3.70
2023-01-20T07:18:43.722Z,3.57
2023-01-20T07:21:12.662Z,3.60
2023-01-20T07:23:40.245Z,3.80
2023-01-20T07:26:09.395Z,3.17
2023-01-20T07:28:56.141Z,3.42
2023-01-20T07:31:25.546Z,3.10
2023-01-20T07:33:55.228Z,3.72
2023-01-20T07:36:23.111Z,4.28
2023-01-20T07:38:51.719Z,4.05
2023-01-20T07:41:21.016Z,3.70
2023-01-20T07:43:51.483Z,3.72
2023-01-20T07:46:21.307Z,3.53
2023-01-20T07:48:48.934Z,4.15
2023-01-20T07:51:17.222Z,3.50
2023-01-20T07:53:46.685Z,4.57
2023-01-20T07:56:16.552Z,4.28
2023-01-20T07:58:45.160Z,3.50
2023-01-20T08:01:14.798Z,8.88
2023-01-20T08:03:44.569Z,12.95
2023-01-20T08:06:13.831Z,8.70
2023-01-20T08:08:41.369Z,6.50
2023-01-20T08:11:11.363Z,6.80
2023-01-20T08:13:39.418Z,4.70
2023-01-20T08:16:09.108Z,5.95
2023-01-20T08:18:36.947Z,5.82
2023-01-20T08:21:08.247Z,5.28
2023-01-20T08:23:36.961Z,6.18
2023-01-20T08:26:07.214Z,5.32
2023-01-20T08:28:36.239Z,5.05
2023-01-20T08:31:05.875Z,3.90
2023-01-20T08:33:33.580Z,4.95
2023-01-20T08:36:07.816Z,4.47
2023-01-20T08:38:36.382Z,4.85
2023-01-20T08:41:07.684Z,4.20
2023-01-20T08:43:35.231Z,4.72
2023-01-20T08:46:06.395Z,4.47
2023-01-20T08:48:34.324Z,4.40
2023-01-20T08:51:07.538Z,3.88
2023-01-20T08:53:35.725Z,3.78
2023-01-20T08:56:04.400Z,4.07
2023-01-20T08:58:31.993Z,5.78
2023-01-20T09:00:59.892Z,5.60
2023-01-20T09:03:28.129Z,4.82
2023-01-20T09:05:56.148Z,4.50
2023-01-20T09:08:26.904Z,3.90
2023-01-20T09:10:57.438Z,4.32
2023-01-20T09:13:24.977Z,8.43
2023-01-20T09:15:53.292Z,9.57
2023-01-20T09:18:20.883Z,4.80
2023-01-20T09:20:48.427Z,4.00
2023-01-20T09:23:16.094Z,3.83
2023-01-20T09:25:44.948Z,3.47
2023-01-20T09:28:14.179Z,3.50
2023-01-20T09:30:42.761Z,4.03
2023-01-20T09:33:11.318Z,3.83
2023-01-20T09:35:39.015Z,3.88
2023-01-20T09:38:36.544Z,3.95
2023-01-20T09:41:35.735Z,4.07
2023-01-20T09:44:15.928Z,3.30
2023-01-20T09:47:26.139Z,4.22
2023-01-20T09:50:36.094Z,4.45
2023-01-20T09:53:08.081Z,3.35
2023-01-20T09:55:44.045Z,3.58
2023-01-20T09:58:21.573Z,3.80
2023-01-20T10:00:54.044Z,4.18
2023-01-20T10:03:29.671Z,4.13
2023-01-20T10:06:00.545Z,4.40
2023-01-20T10:08:35.662Z,4.90
2023-01-20T10:11:10.318Z,7.90
2023-01-20T10:13:47.311Z,6.13
2023-01-20T10:16:25.037Z,5.70
2023-01-20T10:18:57.501Z,6.28
2023-01-20T10:21:32.399Z,6.03
2023-01-20T10:24:05.747Z,6.00
2023-01-20T10:29:11.005Z,5.50
2023-01-20T10:31:44.280Z,5.55
2023-01-20T10:36:44.159Z,5.80
2023-01-20T10:39:21.804Z,7.13
2023-01-20T10:41:53.461Z,6.00
2023-01-20T10:44:24.075Z,6.60
2023-01-20T10:47:13.490Z,6.65
2023-01-20T10:49:58.760Z,6.03
2023-01-20T10:52:42.869Z,5.78
2023-01-20T10:55:22.613Z,5.03
2023-01-20T10:57:55.699Z,5.38
2023-01-20T11:00:27.550Z,6.10
2023-01-20T11:02:58.977Z,4.60
2023-01-20T11:05:30.362Z,4.53
2023-01-20T11:08:00.697Z,4.78
2023-01-20T11:10:33.275Z,4.72
2023-01-20T11:13:02.751Z,4.57
2023-01-20T11:15:34.768Z,5.63
2023-01-20T11:18:29.807Z,5.32
2023-01-20T11:21:00.740Z,3.97
2023-01-20T11:23:36.466Z,6.05
2023-01-20T11:26:13.286Z,5.45
2023-01-20T11:28:51.525Z,6.75
2023-01-20T11:31:21.336Z,5.80
2023-01-20T11:33:58.095Z,4.72
2023-01-20T11:36:26.836Z,5.10
2023-01-20T11:38:56.410Z,4.63
2023-01-20T11:41:25.748Z,4.80
2023-01-20T11:43:56.078Z,4.85
2023-01-20T11:46:27.901Z,5.32
2023-01-20T11:49:16.963Z,5.65
2023-01-20T11:51:50.903Z,6.22
2023-01-20T11:54:21.282Z,6.07
2023-01-20T11:56:53.219Z,6.60
2023-01-20T11:59:26.907Z,6.22
2023-01-20T12:02:00.691Z,6.03
2023-01-20T12:04:53.939Z,5.78
2023-01-20T12:07:25.273Z,5.60
2023-01-20T12:09:55.542Z,6.10
2023-01-20T12:12:30.503Z,5.55
2023-01-20T12:15:03.000Z,6.05
2023-01-20T12:17:40.726Z,5.85
2023-01-20T12:20:18.121Z,6.18
2023-01-20T12:22:55.483Z,5.45
2023-01-20T12:25:26.458Z,6.80
2023-01-20T12:27:57.540Z,6.05
2023-01-20T12:30:43.407Z,6.25
2023-01-20T12:33:20.519Z,5.90
2023-01-20T12:36:24.880Z,6.00
2023-01-20T12:39:18.204Z,6.07
2023-01-20T12:41:59.992Z,6.35
2023-01-20T12:44:36.665Z,5.97
2023-01-20T12:47:17.351Z,7.05
2023-01-20T12:50:00.976Z,5.45
2023-01-20T12:52:44.506Z,5.70
2023-01-20T12:55:31.066Z,6.45
2023-01-20T12:58:08.127Z,6.38
2023-01-20T13:00:47.411Z,5.35
2023-01-20T13:03:34.658Z,5.50
2023-01-20T13:06:50.109Z,4.93
2023-01-20T13:09:32.950Z,5.07
2023-01-20T13:12:10.495Z,5.05
2023-01-20T13:14:43.671Z,4.35
2023-01-20T13:17:20.547Z,5.57
2023-01-20T13:19:49.820Z,5.20
2023-01-20T13:22:20.476Z,4.90
2023-01-20T13:24:53.275Z,5.38
2023-01-20T13:27:25.875Z,4.57
2023-01-20T13:29:56.706Z,4.40
2023-01-20T13:32:32.811Z,4.72
2023-01-20T13:35:01.902Z,4.93
2023-01-20T13:37:33.057Z,4.13
2023-01-20T13:40:02.464Z,4.10
2023-01-20T13:42:52.119Z,4.00
2023-01-20T13:45:25.681Z,4.38
2023-01-20T13:47:57.439Z,4.75
2023-01-20T13:50:29.383Z,3.47
2023-01-20T13:53:14.853Z,3.17
2023-01-20T13:56:00.715Z,3.75
2023-01-20T13:58:30.157Z,3.10
2023-01-20T14:00:59.327Z,3.08
2023-01-20T14:03:30.037Z,3.28
2023-01-20T14:06:00.327Z,3.78
2023-01-20T14:08:30.229Z,3.72
2023-01-20T14:11:16.977Z,2.80
2023-01-20T14:13:52.753Z,2.75
2023-01-20T14:16:22.173Z,3.00
2023-01-20T14:18:50.325Z,2.80
2023-01-20T14:21:21.006Z,2.78
2023-01-20T14:23:49.096Z,3.00
2023-01-20T14:26:24.292Z,2.85
2023-01-20T14:28:53.804Z,2.80
2023-01-20T14:31:35.159Z,2.72
2023-01-20T14:34:18.582Z,3.10
2023-01-20T14:36:47.142Z,3.55
2023-01-20T14:39:21.198Z,2.83
2023-01-20T14:41:51.943Z,2.97
2023-01-20T14:44:22.105Z,3.05
2023-01-20T14:46:51.836Z,2.83
2023-01-20T14:49:22.349Z,3.15
2023-01-20T14:51:51.238Z,3.08
2023-01-20T14:54:35.213Z,2.58
2023-01-20T14:57:26.333Z,4.03
2023-01-20T15:00:16.950Z,2.67
2023-01-20T15:02:58.023Z,3.38
2023-01-20T15:05:37.898Z,2.97
2023-01-20T15:08:24.349Z,2.85
2023-01-20T15:11:12.435Z,2.33
2023-01-20T15:13:42.334Z,2.70
2023-01-20T15:16:18.864Z,2.95
2023-01-20T15:19:25.159Z,2.40
2023-01-20T15:21:56.259Z,2.35
2023-01-20T15:24:30.472Z,2.58
2023-01-20T15:27:00.665Z,2.53
2023-01-20T15:29:31.069Z,2.50
2023-01-20T15:32:00.493Z,2.53
2023-01-20T15:34:29.250Z,2.90
2023-01-20T15:36:57.097Z,2.42
2023-01-20T15:39:28.909Z,3.15
2023-01-20T15:41:57.062Z,3.45
2023-01-20T15:44:26.121Z,3.30
2023-01-20T15:46:57.508Z,3.13
2023-01-20T15:49:25.901Z,7.28
2023-01-20T15:51:53.661Z,8.15
2023-01-20T15:54:21.208Z,8.63
2023-01-20T15:56:48.824Z,22.35
2023-01-20T15:59:20.102Z,28.42
2023-01-20T16:01:51.189Z,7.82
2023-01-20T16:04:21.730Z,13.85
2023-01-20T16:06:49.333Z,16.30
2023-01-20T16:09:25.756Z,8.68
2023-01-20T16:11:54.421Z,5.40
2023-01-20T16:14:22.056Z,5.47
2023-01-20T16:16:49.688Z,13.15
2023-01-20T16:19:20.981Z,5.95
2023-01-20T16:21:48.681Z,4.15
2023-01-20T16:24:16.196Z,3.50
2023-01-20T16:26:48.635Z,3.47
2023-01-20T16:29:16.372Z,2.20
2023-01-20T16:31:43.937Z,2.20
2023-01-20T16:34:11.559Z,3.00
2023-01-20T16:36:40.429Z,2.65
2023-01-20T16:39:08.051Z,3.72
2023-01-20T16:41:37.963Z,2.40
2023-01-20T16:44:05.683Z,2.30
2023-01-20T16:46:33.700Z,2.30
2023-01-20T16:49:02.934Z,1.90
2023-01-20T16:51:31.847Z,2.20
2023-01-20T16:54:00.838Z,2.90
2023-01-20T16:56:30.635Z,2.97
2023-01-20T16:59:00.516Z,2.05
2023-01-20T17:01:29.852Z,2.40
2023-01-20T17:03:59.530Z,1.92
2023-01-20T17:06:28.962Z,1.90
2023-01-20T17:08:58.410Z,1.90
2023-01-20T17:11:29.565Z,1.73
2023-01-20T17:13:58.467Z,1.80
2023-01-20T17:16:26.904Z,1.98
2023-01-20T17:18:58.421Z,1.75
2023-01-20T17:21:28.276Z,1.70
2023-01-20T17:23:58.329Z,2.00
2023-01-20T17:26:27.745Z,1.52
2023-01-20T17:28:56.480Z,2.25
2023-01-20T17:31:24.507Z,2.80
2023-01-20T17:33:52.665Z,4.30
2023-01-20T17:36:20.386Z,4.43
2023-01-20T17:38:48.399Z,3.58
2023-01-20T17:41:16.303Z,4.53
2023-01-20T17:43:46.544Z,5.43
2023-01-20T17:46:16.579Z,4.72
2023-01-20T17:48:44.791Z,4.75
2023-01-20T17:51:13.105Z,5.00
2023-01-20T17:53:40.896Z,4.68
2023-01-20T17:56:12.907Z,5.07
2023-01-20T17:58:42.019Z,3.78
2023-01-20T18:01:12.311Z,4.75
2023-01-20T18:03:41.947Z,4.45
2023-01-20T18:06:11.771Z,5.25
2023-01-20T18:08:39.588Z,5.03
2023-01-20T18:11:09.261Z,6.70
2023-01-20T18:13:37.629Z,7.28
2023-01-20T18:16:05.691Z,6.55
2023-01-20T18:18:34.872Z,6.30
2023-01-20T18:21:10.175Z,7.03
2023-01-20T18:23:39.247Z,7.38
2023-01-20T18:26:08.248Z,7.47
2023-01-20T18:28:37.320Z,12.63
2023-01-20T18:31:08.975Z,11.90
2023-01-20T18:33:39.847Z,8.23
2023-01-20T18:36:11.234Z,9.15
2023-01-20T18:38:43.049Z,8.40
2023-01-20T18:41:11.621Z,8.95
2023-01-20T18:43:39.693Z,8.82
2023-01-20T18:46:08.679Z,9.38
2023-01-20T18:48:40.196Z,9.70
2023-01-20T18:51:10.104Z,9.60
2023-01-20T18:53:38.124Z,9.40
2023-01-20T18:56:08.482Z,9.00
2023-01-20T18:58:38.355Z,9.25
2023-01-20T19:01:07.732Z,9.90
2023-01-20T19:03:36.583Z,14.02
2023-01-20T19:06:07.641Z,11.70
2023-01-20T19:08:35.670Z,8.82
2023-01-20T19:11:05.215Z,8.93
2023-01-20T19:13:33.571Z,9.07
2023-01-20T19:16:01.464Z,8.60
2023-01-20T19:18:29.291Z,9.50
2023-01-20T19:20:57.062Z,9.05
2023-01-20T19:23:25.964Z,8.35
2023-01-20T19:26:00.900Z,8.25
2023-01-20T19:28:28.491Z,8.80
2023-01-20T19:30:56.188Z,8.40
2023-01-20T19:33:23.784Z,8.20
2023-01-20T19:35:51.355Z,7.65
2023-01-20T19:38:18.910Z,7.22
2023-01-20T19:40:47.765Z,14.85
2023-01-20T19:43:15.318Z,11.35
2023-01-20T19:45:46.294Z,8.23
2023-01-20T19:48:14.112Z,7.65
2023-01-20T19:50:41.789Z,6.15
2023-01-20T19:53:09.365Z,6.53
2023-01-20T19:55:36.897Z,4.25
2023-01-20T19:58:06.251Z,6.00
2023-01-20T20:00:33.873Z,6.20
2023-01-20T20:03:02.884Z,5.05
2023-01-20T20:05:32.598Z,4.65
2023-01-20T20:08:00.277Z,4.57
2023-01-20T20:10:27.813Z,5.18
2023-01-20T20:12:57.518Z,4.80
2023-01-20T20:15:26.418Z,4.40
2023-01-20T20:17:55.050Z,4.78
2023-01-20T20:20:22.650Z,4.00
2023-01-20T20:22:50.322Z,4.22
2023-01-20T20:25:18.035Z,3.25
2023-01-20T20:27:45.588Z,3.63
2023-01-20T20:30:13.870Z,6.15
2023-01-20T20:32:42.914Z,5.55
2023-01-20T20:35:10.609Z,5.43
2023-01-20T20:37:38.274Z,6.95
2023-01-20T20:40:06.754Z,6.55
2023-01-20T20:42:34.915Z,5.90
2023-01-20T20:45:02.456Z,10.65
2023-01-20T20:47:29.990Z,9.98
2023-01-20T20:49:58.864Z,6.18
2023-01-20T20:52:26.418Z,4.57
2023-01-20T20:54:56.021Z,4.20
2023-01-20T20:57:23.626Z,11.15
2023-01-20T20:59:59.109Z,4.03
2023-01-20T21:02:27.626Z,6.15
2023-01-20T21:04:55.253Z,4.03
2023-01-20T21:07:24.289Z,3.55
2023-01-20T21:09:52.043Z,2.33
2023-01-20T21:12:19.661Z,2.53
2023-01-20T21:14:47.134Z,3.38
2023-01-20T21:17:14.692Z,3.00
2023-01-20T21:19:42.193Z,5.68
2023-01-20T21:22:09.796Z,3.20
2023-01-20T21:24:38.674Z,2.40
2023-01-20T21:27:06.366Z,1.90
2023-01-20T21:29:33.893Z,2.10
2023-01-20T21:32:01.431Z,2.28
2023-01-20T21:34:29.039Z,2.30
2023-01-20T21:36:56.751Z,3.72
2023-01-20T21:39:24.297Z,1.85
2023-01-20T21:41:53.171Z,1.65
2023-01-20T21:44:28.962Z,1.73
2023-01-20T21:46:57.297Z,2.08
2023-01-20T21:49:42.349Z,2.70
2023-01-20T21:52:44.494Z,1.90
2023-01-20T21:55:15.766Z,1.90
2023-01-20T21:57:44.689Z,1.80
2023-01-20T22:00:13.357Z,1.98
2023-01-20T22:02:43.270Z,2.15
2023-01-20T22:05:11.015Z,2.10
2023-01-20T22:07:38.587Z,2.17
2023-01-20T22:10:07.620Z,2.35
2023-01-20T22:12:35.628Z,2.30
2023-01-20T22:15:05.223Z,2.55
2023-01-20T22:17:32.775Z,2.45
2023-01-20T22:20:00.359Z,3.40
2023-01-20T22:22:27.894Z,3.80
2023-01-20T22:24:55.474Z,3.63
2023-01-20T22:27:23.074Z,2.85
2023-01-20T22:29:50.620Z,3.35
2023-01-20T22:32:19.525Z,3.50
2023-01-20T22:34:47.099Z,3.47
2023-01-20T22:37:14.657Z,3.97
2023-01-20T22:39:42.227Z,3.83
2023-01-20T22:42:09.829Z,3.30
2023-01-20T22:44:37.363Z,2.95
2023-01-20T22:47:10.072Z,3.45
2023-01-20T22:49:38.965Z,4.32
2023-01-20T22:52:06.626Z,5.05
2023-01-20T22:54:37.801Z,5.68
2023-01-20T22:57:05.480Z,5.65
2023-01-20T22:59:32.999Z,5.30
2023-01-20T23:02:00.573Z,4.95
2023-01-20T23:04:29.431Z,4.70
2023-01-20T23:06:58.307Z,4.10
2023-01-20T23:09:26.036Z,5.65
2023-01-20T23:11:53.741Z,5.97
2023-01-20T23:14:41.354Z,5.35
2023-01-20T23:17:08.866Z,5.25
2023-01-20T23:19:39.264Z,5.13
2023-01-20T23:22:08.630Z,5.00
2023-01-20T23:24:36.451Z,4.68
2023-01-20T23:27:04.026Z,5.10
2023-01-20T23:29:31.668Z,5.25
2023-01-20T23:31:59.273Z,4.32
2023-01-20T23:34:26.877Z,4.35
2023-01-20T23:36:54.472Z,4.80
2023-01-20T23:39:23.545Z,4.13
2023-01-20T23:41:51.422Z,4.85
2023-01-20T23:44:19.055Z,4.05
2023-01-20T23:46:46.674Z,3.45
2023-01-20T23:49:14.494Z,3.30
2023-01-20T23:51:42.160Z,3.90
2023-01-20T23:54:13.269Z,3.40
2023-01-20T23:56:42.208Z,3.25
2023-01-20T23:59:09.856Z,4.45
